createdAt,value
2023-03-26T00:01:29.673Z,100.00
2023-03-26T00:03:57.838Z,100.00
2023-03-26T00:06:27.643Z,100.00
2023-03-26T00:08:57.840Z,100.00
2023-03-26T00:11:28.791Z,100.00
2023-03-26T00:13:57.955Z,100.00
2023-03-26T00:16:27.534Z,100.00
2023-03-26T00:18:55.611Z,100.00
2023-03-26T00:21:27.568Z,100.00
2023-03-26T00:23:55.653Z,100.00
2023-03-26T00:26:24.015Z,100.00
2023-03-26T00:28:54.472Z,100.00
2023-03-26T00:31:22.899Z,100.00
2023-03-26T00:33:55.398Z,100.00
2023-03-26T00:36:25.440Z,100.00
2023-03-26T00:38:54.434Z,100.00
2023-03-26T00:41:26.841Z,100.00
2023-03-26T00:43:58.200Z,100.00
2023-03-26T00:46:27.509Z,100.00
2023-03-26T00:48:58.490Z,100.00
2023-03-26T00:51:26.610Z,100.00
2023-03-26T00:53:54.143Z,100.00
2023-03-26T00:56:21.728Z,100.00
2023-03-26T00:58:50.378Z,100.00
2023-03-26T01:01:27.924Z,100.00
2023-03-26T01:04:07.246Z,100.00
2023-03-26T01:06:45.107Z,100.00
2023-03-26T01:09:16.872Z,100.00
2023-03-26T01:11:45.524Z,100.00
2023-03-26T01:14:17.040Z,100.00
2023-03-26T01:16:52.263Z,100.00
2023-03-26T01:19:29.244Z,100.00
2023-03-26T01:21:58.784Z,100.00
2023-03-26T01:24:27.975Z,100.00
2023-03-26T01:27:20.122Z,100.00
2023-03-26T01:29:54.441Z,100.00
2023-03-26T01:32:38.614Z,100.00
2023-03-26T01:35:18.972Z,100.00
2023-03-26T01:37:58.526Z,100.00
2023-03-26T01:40:38.531Z,100.00
2023-03-26T01:43:12.288Z,100.00
2023-03-26T01:45:47.182Z,100.00
2023-03-26T01:48:15.068Z,100.00
2023-03-26T01:50:42.748Z,100.00
2023-03-26T01:53:14.497Z,100.00
2023-03-26T01:55:56.012Z,100.00
2023-03-26T01:58:32.479Z,100.00
2023-03-26T02:01:12.542Z,100.00
2023-03-26T02:03:44.927Z,100.00
2023-03-26T02:06:21.292Z,100.00
2023-03-26T02:08:53.841Z,100.00
2023-03-26T02:11:23.395Z,100.00
2023-03-26T02:13:52.643Z,100.00
2023-03-26T02:16:21.177Z,100.00
2023-03-26T02:18:55.592Z,100.00
2023-03-26T02:21:26.006Z,100.00
2023-03-26T02:24:02.570Z,100.00
2023-03-26T02:26:35.520Z,100.00
2023-03-26T02:29:09.780Z,100.00
2023-03-26T02:31:38.604Z,100.00
2023-03-26T02:34:06.249Z,100.00
2023-03-26T02:36:37.577Z,100.00
2023-03-26T02:39:05.740Z,100.00
2023-03-26T02:41:38.613Z,100.00
2023-03-26T02:44:09.561Z,100.00
2023-03-26T02:46:55.825Z,100.00
2023-03-26T02:49:41.339Z,100.00
2023-03-26T02:52:09.636Z,100.00
2023-03-26T02:54:37.454Z,100.00
2023-03-26T02:57:09.379Z,100.00
2023-03-26T02:59:52.764Z,100.00
2023-03-26T03:02:40.509Z,100.00
2023-03-26T03:05:28.731Z,100.00
2023-03-26T03:08:12.341Z,100.00
2023-03-26T03:11:01.703Z,100.00
2023-03-26T03:13:41.027Z,100.00
2023-03-26T03:16:09.710Z,100.00
2023-03-26T03:18:38.037Z,100.00
2023-03-26T03:21:06.948Z,100.00
2023-03-26T03:23:34.588Z,100.00
2023-03-26T03:26:15.446Z,100.00
2023-03-26T03:28:47.409Z,100.00
2023-03-26T03:31:16.936Z,100.00
2023-03-26T03:33:46.349Z,100.00
2023-03-26T03:36:20.107Z,100.00
2023-03-26T03:38:51.403Z,100.00
2023-03-26T03:41:21.579Z,100.00
2023-03-26T03:43:51.775Z,100.00
2023-03-26T03:46:26.067Z,100.00
2023-03-26T03:48:53.819Z,100.00
2023-03-26T03:51:26.717Z,100.00
2023-03-26T03:53:57.598Z,100.00
2023-03-26T03:56:45.513Z,100.00
2023-03-26T03:59:15.463Z,100.00
2023-03-26T04:01:46.575Z,100.00
2023-03-26T04:04:24.703Z,100.00
2023-03-26T04:07:00.140Z,100.00
2023-03-26T04:09:34.649Z,100.00
2023-03-26T04:12:09.212Z,100.00
2023-03-26T04:14:49.148Z,100.00
2023-03-26T04:17:21.803Z,100.00
2023-03-26T04:19:50.215Z,100.00
2023-03-26T04:22:19.471Z,100.00
2023-03-26T04:25:02.287Z,100.00
2023-03-26T04:27:39.221Z,100.00
2023-03-26T04:30:28.430Z,100.00
2023-03-26T04:33:06.365Z,100.00
2023-03-26T04:35:41.534Z,100.00
2023-03-26T04:38:12.121Z,100.00
2023-03-26T04:40:47.385Z,100.00
2023-03-26T04:43:30.173Z,100.00
2023-03-26T04:46:21.752Z,100.00
2023-03-26T04:48:56.017Z,100.00
2023-03-26T04:51:27.890Z,100.00
2023-03-26T04:54:00.149Z,100.00
2023-03-26T04:56:44.782Z,100.00
2023-03-26T04:59:34.816Z,100.00
2023-03-26T05:02:07.842Z,100.00
2023-03-26T05:04:46.150Z,100.00
2023-03-26T05:07:18.257Z,100.00
2023-03-26T05:09:49.563Z,100.00
2023-03-26T05:12:23.127Z,100.00
2023-03-26T05:14:54.926Z,100.00
2023-03-26T05:17:41.303Z,100.00
2023-03-26T05:20:20.858Z,100.00
2023-03-26T05:22:49.790Z,100.00
2023-03-26T05:25:24.135Z,100.00
2023-03-26T05:27:51.685Z,100.00
2023-03-26T05:30:22.433Z,100.00
2023-03-26T05:32:56.568Z,100.00
2023-03-26T05:35:31.177Z,100.00
2023-03-26T05:37:59.001Z,100.00
2023-03-26T05:40:27.358Z,100.00
2023-03-26T05:43:00.419Z,100.00
2023-03-26T05:45:35.089Z,100.00
2023-03-26T05:48:16.394Z,100.00
2023-03-26T05:50:43.945Z,100.00
2023-03-26T05:53:11.513Z,100.00
2023-03-26T05:55:46.567Z,100.00
2023-03-26T05:58:34.725Z,100.00
2023-03-26T06:01:20.988Z,100.00
2023-03-26T06:04:08.744Z,100.00
2023-03-26T06:06:40.473Z,100.00
2023-03-26T06:09:08.158Z,100.00
2023-03-26T06:11:35.775Z,100.00
2023-03-26T06:14:04.995Z,100.00
2023-03-26T06:16:34.243Z,100.00
2023-03-26T06:19:17.505Z,100.00
2023-03-26T06:21:51.674Z,100.00
2023-03-26T06:24:22.841Z,100.00
2023-03-26T06:27:10.714Z,100.00
2023-03-26T06:30:13.836Z,100.00
2023-03-26T06:32:51.887Z,100.00
2023-03-26T06:35:26.070Z,98.56
2023-03-26T06:37:54.553Z,100.00
2023-03-26T06:40:22.136Z,100.00
2023-03-26T06:43:08.575Z,100.00
2023-03-26T06:45:56.954Z,100.00
2023-03-26T06:48:39.908Z,98.17
2023-03-26T06:51:27.360Z,98.80
2023-03-26T06:54:10.199Z,96.44
2023-03-26T06:57:03.954Z,97.47
2023-03-26T06:59:50.221Z,95.31
2023-03-26T07:02:37.177Z,94.91
2023-03-26T07:05:27.360Z,95.21
2023-03-26T07:08:34.572Z,93.16
2023-03-26T07:11:31.092Z,91.97
2023-03-26T07:14:38.628Z,90.50
2023-03-26T07:17:13.998Z,87.46
2023-03-26T07:19:55.303Z,88.00
2023-03-26T07:22:27.271Z,88.14
2023-03-26T07:25:17.902Z,86.17
2023-03-26T07:28:14.329Z,86.45
2023-03-26T07:31:06.897Z,85.50
2023-03-26T07:34:18.330Z,86.19
2023-03-26T07:37:01.149Z,84.14
2023-03-26T07:40:05.971Z,83.33
2023-03-26T07:43:18.077Z,85.95
2023-03-26T07:46:04.467Z,82.73
2023-03-26T07:48:51.766Z,81.14
2023-03-26T07:51:34.404Z,80.91
2023-03-26T07:54:12.061Z,81.68
2023-03-26T07:57:07.214Z,79.76
2023-03-26T07:59:41.072Z,82.24
2023-03-26T08:02:36.932Z,81.04
2023-03-26T08:05:27.565Z,80.78
2023-03-26T08:08:18.003Z,81.17
2023-03-26T08:11:16.551Z,80.34
2023-03-26T08:14:02.012Z,80.97
2023-03-26T08:16:37.981Z,80.35
2023-03-26T08:19:16.626Z,78.36
2023-03-26T08:21:48.861Z,80.99
2023-03-26T08:24:23.766Z,79.00
2023-03-26T08:27:00.050Z,79.68
2023-03-26T08:29:35.084Z,77.20
2023-03-26T08:32:05.290Z,79.21
2023-03-26T08:34:33.123Z,78.34
2023-03-26T08:37:01.127Z,79.39
2023-03-26T08:39:28.811Z,77.03
2023-03-26T08:42:18.959Z,77.29
2023-03-26T08:45:23.959Z,78.03
2023-03-26T08:48:34.455Z,75.70
2023-03-26T08:51:38.390Z,77.47
2023-03-26T08:54:32.896Z,75.63
2023-03-26T08:57:25.191Z,77.52
2023-03-26T09:00:44.726Z,76.94
2023-03-26T09:03:46.982Z,73.63
2023-03-26T09:06:28.282Z,75.89
2023-03-26T09:09:51.564Z,73.80
2023-03-26T09:12:47.187Z,72.06
2023-03-26T09:15:39.223Z,74.77
2023-03-26T09:18:38.383Z,74.54
2023-03-26T09:21:33.094Z,72.32
2023-03-26T09:24:30.506Z,74.71
2023-03-26T09:27:10.914Z,73.32
2023-03-26T09:30:02.002Z,75.69
2023-03-26T09:32:59.349Z,76.88
2023-03-26T09:35:55.077Z,73.95
2023-03-26T09:38:39.874Z,72.78
2023-03-26T09:41:14.545Z,75.53
2023-03-26T09:44:08.158Z,72.52
2023-03-26T09:46:48.164Z,72.70
2023-03-26T09:49:35.245Z,72.13
2023-03-26T09:52:36.178Z,72.87
2023-03-26T09:55:34.105Z,73.19
2023-03-26T09:58:21.107Z,70.30
2023-03-26T10:00:55.090Z,71.63
2023-03-26T10:03:34.890Z,73.63
2023-03-26T10:06:24.741Z,72.99
2023-03-26T10:09:07.974Z,74.23
2023-03-26T10:11:56.929Z,75.36
2023-03-26T10:14:32.595Z,72.32
2023-03-26T10:17:11.497Z,70.41
2023-03-26T10:19:55.392Z,70.90
2023-03-26T10:22:42.182Z,67.45
2023-03-26T10:25:39.848Z,70.99
2023-03-26T10:28:27.228Z,69.51
2023-03-26T10:31:11.822Z,71.41
2023-03-26T10:33:50.346Z,70.70
2023-03-26T10:36:30.762Z,69.61
2023-03-26T10:39:36.528Z,69.92
2023-03-26T10:42:25.926Z,70.38
2023-03-26T10:45:14.530Z,68.25
2023-03-26T10:48:01.370Z,69.97
2023-03-26T10:50:44.218Z,70.14
2023-03-26T10:53:21.526Z,69.52
2023-03-26T10:55:55.896Z,65.19
2023-03-26T10:58:26.692Z,69.46
2023-03-26T11:01:01.819Z,68.77
2023-03-26T11:03:44.721Z,66.71
2023-03-26T11:06:23.610Z,65.59
2023-03-26T11:08:57.883Z,69.48
2023-03-26T11:11:32.675Z,65.96
2023-03-26T11:14:07.495Z,67.83
2023-03-26T11:16:49.797Z,68.79
2023-03-26T11:19:22.755Z,69.81
2023-03-26T11:21:58.272Z,64.73
2023-03-26T11:25:02.440Z,68.00
2023-03-26T11:27:48.999Z,66.06
2023-03-26T11:30:30.562Z,63.28
2023-03-26T11:33:02.679Z,64.43
2023-03-26T11:35:39.878Z,60.54
2023-03-26T11:38:19.330Z,60.52
2023-03-26T11:40:51.023Z,62.86
2023-03-26T11:43:38.994Z,64.49
2023-03-26T11:46:11.269Z,64.32
2023-03-26T11:48:44.339Z,63.84
2023-03-26T11:51:17.510Z,63.95
2023-03-26T11:53:46.690Z,64.06
2023-03-26T11:56:27.700Z,64.70
2023-03-26T11:59:01.486Z,63.47
2023-03-26T12:01:41.389Z,63.66
2023-03-26T12:04:14.445Z,62.09
2023-03-26T12:06:52.885Z,63.16
2023-03-26T12:09:21.213Z,60.54
2023-03-26T12:11:53.283Z,62.54
2023-03-26T12:14:24.313Z,60.44
2023-03-26T12:17:00.780Z,63.35
2023-03-26T12:19:36.813Z,64.10
2023-03-26T12:22:04.405Z,61.48
2023-03-26T12:24:34.021Z,59.86
2023-03-26T12:27:03.881Z,59.62
2023-03-26T12:29:34.308Z,60.44
2023-03-26T12:32:08.624Z,61.25
2023-03-26T12:34:39.379Z,60.70
2023-03-26T12:37:16.240Z,57.13
2023-03-26T12:40:10.706Z,58.75
2023-03-26T12:44:50.337Z,63.67
2023-03-26T12:45:25.091Z,63.68
2023-03-26T12:48:01.799Z,61.99
2023-03-26T12:50:44.863Z,58.87
2023-03-26T12:53:38.439Z,58.30
2023-03-26T12:56:17.361Z,58.51
2023-03-26T12:59:03.866Z,57.05
2023-03-26T13:01:45.588Z,59.09
2023-03-26T13:04:40.084Z,57.84
2023-03-26T13:07:18.003Z,60.10
2023-03-26T13:10:03.815Z,57.74
2023-03-26T13:12:40.757Z,57.43
2023-03-26T13:15:18.708Z,56.95
2023-03-26T13:17:57.583Z,55.86
2023-03-26T13:20:32.877Z,60.54
2023-03-26T13:23:10.436Z,56.83
2023-03-26T13:25:46.871Z,55.46
2023-03-26T13:28:27.037Z,56.71
2023-03-26T13:31:04.988Z,58.27
2023-03-26T13:33:41.209Z,57.53
2023-03-26T13:36:24.008Z,60.08
2023-03-26T13:39:07.854Z,60.21
2023-03-26T13:41:47.910Z,60.44
2023-03-26T13:44:24.437Z,61.37
2023-03-26T13:46:55.999Z,59.56
2023-03-26T13:49:30.941Z,57.90
2023-03-26T13:52:01.542Z,57.96
2023-03-26T13:54:35.756Z,59.89
2023-03-26T13:57:11.344Z,58.13
2023-03-26T13:59:41.502Z,56.69
2023-03-26T14:02:12.713Z,56.29
2023-03-26T14:04:43.785Z,57.05
2023-03-26T14:07:20.888Z,57.65
2023-03-26T14:09:55.819Z,60.47
2023-03-26T14:12:33.311Z,56.45
2023-03-26T14:15:04.067Z,56.75
2023-03-26T14:17:38.464Z,55.51
2023-03-26T14:20:42.317Z,58.81
2023-03-26T14:23:24.075Z,57.06
2023-03-26T14:26:07.833Z,55.56
2023-03-26T14:28:55.632Z,57.37
2023-03-26T14:31:31.546Z,55.37
2023-03-26T14:34:17.682Z,55.80
2023-03-26T14:37:06.081Z,56.26
2023-03-26T14:39:53.979Z,55.20
2023-03-26T14:42:30.198Z,57.85
2023-03-26T14:45:18.105Z,57.27
2023-03-26T14:47:52.013Z,59.57
2023-03-26T14:50:46.591Z,58.06
2023-03-26T14:53:26.345Z,60.52
2023-03-26T14:56:15.760Z,59.60
2023-03-26T14:59:18.312Z,57.69
2023-03-26T15:02:09.801Z,58.18
2023-03-26T15:05:00.829Z,56.77
2023-03-26T15:07:50.082Z,55.01
2023-03-26T15:10:51.195Z,54.93
2023-03-26T15:13:42.260Z,51.41
2023-03-26T15:16:52.098Z,52.25
2023-03-26T15:19:59.354Z,52.91
2023-03-26T15:23:06.004Z,53.79
2023-03-26T15:26:09.748Z,54.80
2023-03-26T15:29:04.343Z,57.37
2023-03-26T15:32:05.097Z,56.10
2023-03-26T15:35:09.660Z,55.10
2023-03-26T15:38:17.677Z,54.01
2023-03-26T15:40:54.667Z,53.53
2023-03-26T15:43:22.807Z,51.00
2023-03-26T15:45:54.655Z,51.22
2023-03-26T15:48:50.518Z,52.15
2023-03-26T15:51:47.649Z,53.47
2023-03-26T15:54:23.842Z,54.51
2023-03-26T15:57:16.939Z,55.37
2023-03-26T15:59:59.433Z,57.36
2023-03-26T16:02:37.845Z,57.14
2023-03-26T16:05:28.327Z,56.10
2023-03-26T16:08:05.445Z,57.15
2023-03-26T16:10:40.927Z,58.28
2023-03-26T16:13:31.703Z,55.19
2023-03-26T16:16:23.486Z,56.00
2023-03-26T16:19:19.156Z,55.41
2023-03-26T16:21:55.957Z,57.86
2023-03-26T16:24:31.863Z,56.78
2023-03-26T16:27:09.075Z,57.60
2023-03-26T16:30:14.384Z,57.80
2023-03-26T16:32:44.890Z,59.06
2023-03-26T16:35:41.431Z,58.04
2023-03-26T16:38:14.593Z,59.45
2023-03-26T16:41:00.753Z,60.18
2023-03-26T16:43:56.227Z,57.86
2023-03-26T16:46:37.427Z,58.28
2023-03-26T16:49:17.374Z,56.92
2023-03-26T16:51:58.250Z,54.44
2023-03-26T16:54:36.061Z,55.67
2023-03-26T16:57:17.234Z,54.81
2023-03-26T17:00:06.109Z,55.96
2023-03-26T17:02:37.435Z,58.03
2023-03-26T17:05:19.142Z,58.58
2023-03-26T17:07:53.490Z,60.11
2023-03-26T17:10:31.921Z,62.59
2023-03-26T17:13:07.990Z,62.95
2023-03-26T17:15:46.974Z,65.14
2023-03-26T17:18:29.984Z,64.54
2023-03-26T17:21:03.366Z,64.72
2023-03-26T17:23:53.087Z,64.88
2023-03-26T17:26:27.866Z,66.34
2023-03-26T17:29:11.882Z,66.46
2023-03-26T17:31:44.318Z,68.31
2023-03-26T17:34:33.502Z,67.93
2023-03-26T17:37:04.107Z,68.53
2023-03-26T17:40:09.284Z,69.37
2023-03-26T17:42:37.528Z,70.04
2023-03-26T17:45:09.975Z,70.65
2023-03-26T17:47:40.520Z,70.62
2023-03-26T17:50:14.534Z,72.20
2023-03-26T17:52:50.341Z,72.71
2023-03-26T17:55:21.011Z,74.00
2023-03-26T17:57:52.335Z,74.40
2023-03-26T18:00:24.184Z,74.96
2023-03-26T18:02:56.111Z,75.47
2023-03-26T18:05:27.635Z,75.46
2023-03-26T18:08:15.715Z,75.92
2023-03-26T18:11:15.123Z,76.58
2023-03-26T18:14:00.604Z,77.72
2023-03-26T18:16:33.851Z,77.73
2023-03-26T18:19:03.811Z,77.83
2023-03-26T18:21:35.836Z,78.01
2023-03-26T18:24:04.481Z,78.38
2023-03-26T18:26:38.484Z,78.49
2023-03-26T18:29:20.404Z,77.16
2023-03-26T18:31:54.109Z,76.54
2023-03-26T18:34:24.232Z,75.73
2023-03-26T18:37:10.871Z,76.19
2023-03-26T18:39:38.515Z,74.80
2023-03-26T18:42:07.176Z,74.94
2023-03-26T18:44:37.088Z,75.01
2023-03-26T18:47:09.613Z,75.20
2023-03-26T18:49:37.851Z,74.19
2023-03-26T18:52:05.940Z,72.65
2023-03-26T18:54:36.508Z,72.54
2023-03-26T18:57:15.493Z,72.31
2023-03-26T18:59:45.325Z,70.27
2023-03-26T19:02:16.308Z,70.02
2023-03-26T19:04:46.945Z,69.36
2023-03-26T19:07:16.620Z,68.91
2023-03-26T19:09:44.746Z,67.52
2023-03-26T19:12:18.629Z,67.52
2023-03-26T19:14:56.268Z,64.96
2023-03-26T19:17:28.789Z,63.24
2023-03-26T19:19:57.547Z,61.95
2023-03-26T19:22:26.529Z,62.35
2023-03-26T19:24:59.375Z,61.78
2023-03-26T19:27:27.377Z,61.03
2023-03-26T19:29:55.115Z,61.27
2023-03-26T19:32:32.717Z,61.12
2023-03-26T19:35:01.978Z,58.72
2023-03-26T19:37:31.558Z,59.60
2023-03-26T19:40:06.955Z,59.31
2023-03-26T19:45:26.948Z,58.82
2023-03-26T19:48:11.759Z,58.29
2023-03-26T19:50:45.830Z,60.09
2023-03-26T19:51:18.130Z,59.25
2023-03-26T19:53:22.382Z,58.76
2023-03-26T19:55:57.987Z,57.41
2023-03-26T19:58:27.037Z,57.39
2023-03-26T20:00:56.018Z,58.17
2023-03-26T20:03:29.035Z,57.48
2023-03-26T20:05:56.718Z,57.43
2023-03-26T20:08:26.991Z,57.53
2023-03-26T20:10:56.223Z,58.02
2023-03-26T20:13:23.941Z,57.03
2023-03-26T20:16:05.596Z,58.72
2023-03-26T20:18:35.476Z,58.27
2023-03-26T20:21:03.281Z,58.47
2023-03-26T20:23:30.804Z,58.59
2023-03-26T20:25:58.478Z,59.15
2023-03-26T20:28:26.160Z,59.97
2023-03-26T20:30:54.371Z,59.63
2023-03-26T20:33:26.593Z,59.99
2023-03-26T20:35:57.116Z,60.13
2023-03-26T20:38:36.631Z,61.14
2023-03-26T20:41:06.886Z,62.12
2023-03-26T20:43:34.410Z,61.06
2023-03-26T20:46:02.449Z,61.47
2023-03-26T20:48:30.011Z,62.59
2023-03-26T20:50:58.852Z,63.09
2023-03-26T20:53:26.610Z,62.96
2023-03-26T20:55:54.095Z,63.40
2023-03-26T20:58:31.417Z,63.95
2023-03-26T21:01:01.306Z,64.67
2023-03-26T21:03:29.130Z,64.24
2023-03-26T21:06:02.078Z,64.60
2023-03-26T21:08:34.975Z,64.78
2023-03-26T21:11:03.676Z,64.57
2023-03-26T21:13:37.762Z,64.71
2023-03-26T21:16:06.346Z,65.21
2023-03-26T21:18:34.683Z,66.22
2023-03-26T21:21:21.021Z,66.38
2023-03-26T21:23:59.043Z,65.98
2023-03-26T21:26:33.440Z,66.53
2023-03-26T21:29:02.277Z,66.88
2023-03-26T21:31:31.352Z,67.10
2023-03-26T21:33:59.494Z,67.08
2023-03-26T21:36:29.331Z,67.78
2023-03-26T21:38:57.403Z,68.46
2023-03-26T21:41:35.788Z,68.19
2023-03-26T21:44:03.660Z,68.55
2023-03-26T21:46:32.887Z,68.20
2023-03-26T21:49:00.976Z,69.17
2023-03-26T21:51:30.633Z,69.87
2023-03-26T21:53:58.774Z,69.36
2023-03-26T21:56:38.020Z,69.89
2023-03-26T21:59:15.797Z,70.09
2023-03-26T22:01:48.228Z,70.00
2023-03-26T22:04:23.214Z,70.54
2023-03-26T22:06:58.219Z,70.82
2023-03-26T22:09:33.938Z,71.92
2023-03-26T22:12:03.874Z,71.73
2023-03-26T22:14:31.445Z,71.61
2023-03-26T22:16:59.093Z,71.33
2023-03-26T22:19:28.177Z,71.99
2023-03-26T22:21:59.906Z,71.65
2023-03-26T22:24:27.850Z,72.69
2023-03-26T22:26:55.915Z,72.47
2023-03-26T22:29:23.733Z,73.17
2023-03-26T22:31:51.368Z,72.73
2023-03-26T22:34:19.555Z,73.31
2023-03-26T22:36:47.295Z,72.86
2023-03-26T22:39:16.191Z,73.56
2023-03-26T22:41:43.805Z,74.05
2023-03-26T22:44:19.612Z,74.70
2023-03-26T22:46:48.982Z,74.13
2023-03-26T22:49:16.927Z,75.26
2023-03-26T22:51:44.511Z,74.47
2023-03-26T22:54:12.155Z,75.39
2023-03-26T22:56:41.508Z,75.85
2023-03-26T22:59:09.090Z,75.53
2023-03-26T23:01:37.127Z,75.92
2023-03-26T23:04:04.955Z,76.36
2023-03-26T23:06:32.588Z,76.47
2023-03-26T23:09:00.928Z,76.99
2023-03-26T23:11:30.451Z,76.18
2023-03-26T23:13:59.763Z,76.81
2023-03-26T23:16:27.406Z,76.80
2023-03-26T23:18:55.052Z,77.30
2023-03-26T23:21:23.139Z,76.66
2023-03-26T23:23:51.574Z,77.50
2023-03-26T23:26:19.169Z,77.11
2023-03-26T23:28:46.887Z,78.08
2023-03-26T23:31:15.806Z,78.36
2023-03-26T23:33:45.937Z,78.73
2023-03-26T23:36:17.443Z,78.65
2023-03-26T23:38:47.557Z,78.68
2023-03-26T23:41:16.264Z,79.08
2023-03-26T23:43:54.380Z,79.31
2023-03-26T23:46:25.490Z,79.80
2023-03-26T23:48:54.694Z,80.16
2023-03-26T23:51:23.875Z,80.06
2023-03-26T23:53:52.456Z,80.13
2023-03-26T23:56:20.061Z,80.20
2023-03-26T23:58:48.627Z,81.16
